Time;durP1;ratioP1;P1;durP2;ratioP2;P2;SDS_P1;SDS_P2;PMS_P1;PMS_P2;Temp;Humidity;BMP_temperature;BMP_pressure;BME280_temperature;BME280_humidity;BME280_pressure;Samples;Min_cycle;Max_cycle;Signal;HPM_P1;HPM_P2
2024/02/01 00:00:34;;;;;;;10.00;4.37;;;10.40;75.40;;;;;;5025958;28;20612;-72
2024/02/01 00:03:00;;;;;;;8.83;5.20;;;10.40;74.60;;;;;;5029974;28;20280;-71
2024/02/01 00:05:26;;;;;;;9.17;5.43;;;10.50;74.60;;;;;;5033316;28;20618;-71
2024/02/01 00:07:51;;;;;;;11.43;5.40;;;10.50;74.50;;;;;;5032876;28;20209;-70
2024/02/01 00:10:17;;;;;;;9.63;5.40;;;10.50;74.80;;;;;;5031185;28;20208;-70
2024/02/01 00:12:42;;;;;;;17.77;6.10;;;10.50;75.10;;;;;;5030077;28;20177;-70
2024/02/01 00:15:09;;;;;;;18.73;6.40;;;10.60;75.10;;;;;;5029619;28;20195;-71
2024/02/01 00:17:34;;;;;;;14.13;6.43;;;10.50;74.90;;;;;;5032965;28;20239;-70
2024/02/01 00:20:00;;;;;;;11.80;5.10;;;10.40;75.10;;;;;;5028350;28;20431;-72
2024/02/01 00:22:25;;;;;;;10.40;5.50;;;10.20;75.70;;;;;;5028127;28;20188;-70
2024/02/01 00:24:53;;;;;;;8.60;4.30;;;10.10;75.90;;;;;;5031099;28;20185;-72
2024/02/01 00:27:19;;;;;;;9.10;5.13;;;10.10;76.20;;;;;;5036623;28;20263;-71
2024/02/01 00:29:44;;;;;;;13.00;6.20;;;10.20;75.80;;;;;;5038710;28;20510;-71
2024/02/01 00:32:10;;;;;;;12.87;5.47;;;10.10;75.80;;;;;;5026213;28;21050;-71
2024/02/01 00:34:42;;;;;;;16.10;7.30;;;10.20;76.20;;;;;;5032082;28;20197;-71
2024/02/01 00:37:08;;;;;;;8.83;6.33;;;10.20;76.10;;;;;;5036318;28;20209;-71
2024/02/01 00:39:34;;;;;;;9.40;5.20;;;10.10;76.50;;;;;;5036828;28;20947;-72
2024/02/01 00:41:59;;;;;;;5.73;3.90;;;10.10;76.10;;;;;;5031771;28;20284;-72
2024/02/01 00:44:25;;;;;;;9.30;4.00;;;10.30;74.50;;;;;;5037265;28;20264;-70
2024/02/01 00:46:50;;;;;;;7.30;3.87;;;10.20;74.20;;;;;;5033678;28;20324;-71
2024/02/01 00:49:16;;;;;;;13.97;3.83;;;10.30;73.90;;;;;;5035460;28;20185;-71
2024/02/01 00:51:41;;;;;;;8.90;3.97;;;10.30;73.60;;;;;;5027489;28;20231;-71
2024/02/01 00:54:07;;;;;;;10.50;4.37;;;10.40;73.30;;;;;;5033209;28;20185;-70
2024/02/01 00:56:32;;;;;;;7.60;4.43;;;10.40;73.20;;;;;;5033073;28;20185;-69
2024/02/01 00:58:58;;;;;;;7.53;3.77;;;10.40;73.50;;;;;;5033489;28;20205;-71
2024/02/01 01:01:24;;;;;;;8.67;4.53;;;10.50;73.20;;;;;;5028762;28;20196;-70
2024/02/01 01:03:49;;;;;;;6.83;4.13;;;10.40;73.50;;;;;;5030378;28;20196;-70
2024/02/01 01:06:15;;;;;;;8.30;4.20;;;10.40;73.50;;;;;;5033800;28;20188;-72
2024/02/01 01:08:40;;;;;;;11.83;5.90;;;10.40;73.50;;;;;;5033650;28;20213;-71
2024/02/01 01:11:06;;;;;;;9.80;5.50;;;10.30;74.00;;;;;;5026087;28;20745;-72
2024/02/01 01:13:32;;;;;;;16.30;6.50;;;10.20;74.90;;;;;;5029916;28;20214;-72
2024/02/01 01:15:57;;;;;;;13.10;6.13;;;10.10;75.70;;;;;;5033216;28;20181;-71
2024/02/01 01:18:23;;;;;;;13.73;6.90;;;9.90;76.20;;;;;;5034327;28;20207;-70
2024/02/01 01:20:48;;;;;;;13.37;6.90;;;9.90;76.70;;;;;;5028856;28;20288;-71
2024/02/01 01:23:14;;;;;;;11.33;5.80;;;9.80;77.10;;;;;;5031052;28;20204;-70
2024/02/01 01:25:40;;;;;;;9.07;5.90;;;9.70;77.30;;;;;;5031650;28;20188;-70
2024/02/01 01:28:05;;;;;;;12.57;5.80;;;9.70;77.40;;;;;;5031882;28;20206;-71
2024/02/01 01:30:31;;;;;;;11.53;5.80;;;9.70;77.40;;;;;;5028951;28;20213;-70
2024/02/01 01:32:56;;;;;;;10.20;5.40;;;9.90;77.40;;;;;;5025835;28;20287;-70
2024/02/01 01:35:22;;;;;;;12.03;5.40;;;10.00;77.30;;;;;;5028478;28;20185;-70
2024/02/01 01:37:47;;;;;;;11.03;6.73;;;10.10;77.00;;;;;;5030749;28;20276;-70
2024/02/01 01:40:13;;;;;;;9.10;5.00;;;10.10;76.70;;;;;;5028835;28;20208;-71
2024/02/01 01:42:43;;;;;;;8.03;4.90;;;10.10;76.40;;;;;;5030297;28;20604;-72
2024/02/01 01:45:08;;;;;;;7.50;4.43;;;10.20;76.40;;;;;;5032267;28;20201;-71
2024/02/01 01:47:34;;;;;;;7.13;4.80;;;10.20;75.90;;;;;;5032277;28;20466;-70
2024/02/01 01:50:00;;;;;;;8.10;4.63;;;10.20;75.70;;;;;;5024959;28;20243;-72
2024/02/01 01:52:27;;;;;;;12.63;5.10;;;10.20;75.70;;;;;;5026391;28;20213;-72
2024/02/01 01:54:53;;;;;;;10.63;5.03;;;10.20;75.70;;;;;;5033810;28;20788;-70
2024/02/01 01:57:19;;;;;;;10.37;5.40;;;10.20;75.70;;;;;;5030084;28;20435;-71
2024/02/01 01:59:45;;;;;;;8.50;4.40;;;10.20;75.70;;;;;;5029849;28;20491;-71
2024/02/01 02:02:13;;;;;;;8.93;5.10;;;10.30;75.70;;;;;;5016678;28;20915;-71
2024/02/01 02:04:40;;;;;;;13.37;5.60;;;10.20;75.80;;;;;;5025435;28;20544;-72
2024/02/01 02:07:06;;;;;;;8.90;5.03;;;10.20;75.70;;;;;;5027061;28;20460;-69
2024/02/01 02:09:31;;;;;;;9.30;5.00;;;10.20;75.90;;;;;;5029723;28;20814;-70
2024/02/01 02:11:57;;;;;;;10.57;5.87;;;10.20;76.10;;;;;;5021384;28;20206;-71
2024/02/01 02:14:22;;;;;;;11.53;6.63;;;10.20;75.90;;;;;;5028252;28;20246;-71
2024/02/01 02:16:48;;;;;;;12.10;6.30;;;10.10;76.20;;;;;;5030544;28;20185;-70
2024/02/01 02:19:14;;;;;;;18.90;6.20;;;10.00;77.70;;;;;;5029099;28;20824;-71
2024/02/01 02:21:46;;;;;;;12.17;6.53;;;10.00;78.00;;;;;;5024118;28;20224;-69
2024/02/01 02:24:12;;;;;;;11.27;5.40;;;10.00;77.80;;;;;;5030324;28;20527;-70
2024/02/01 02:26:38;;;;;;;8.47;5.77;;;10.00;77.60;;;;;;5030772;28;20428;-71
2024/02/01 02:29:04;;;;;;;12.43;6.37;;;9.90;77.80;;;;;;5027048;28;20416;-71
2024/02/01 02:31:29;;;;;;;11.60;6.00;;;9.90;78.10;;;;;;5026943;28;20201;-70
2024/02/01 02:33:55;;;;;;;15.73;7.10;;;9.90;78.00;;;;;;5030792;28;20205;-71
2024/02/01 02:36:20;;;;;;;10.83;6.30;;;9.90;78.10;;;;;;5030336;28;20606;-70
2024/02/01 02:38:46;;;;;;;14.90;6.60;;;9.90;78.10;;;;;;5027267;28;20192;-70
2024/02/01 02:41:12;;;;;;;12.07;6.33;;;9.80;78.10;;;;;;5024708;28;20215;-71
2024/02/01 02:43:37;;;;;;;13.20;5.73;;;9.80;78.10;;;;;;5031935;28;20181;-71
2024/02/01 02:46:03;;;;;;;10.50;6.43;;;9.70;78.00;;;;;;5028634;28;20178;-71
2024/02/01 02:48:30;;;;;;;16.87;4.70;;;9.60;77.70;;;;;;5030108;28;20282;-70
2024/02/01 02:50:55;;;;;;;15.70;6.57;;;9.70;77.00;;;;;;5027563;28;20208;-70
2024/02/01 02:53:21;;;;;;;12.47;6.53;;;9.80;74.80;;;;;;5031307;28;20924;-71
2024/02/01 02:55:46;;;;;;;11.70;5.80;;;9.90;74.80;;;;;;5031214;28;20192;-70
2024/02/01 02:58:12;;;;;;;11.00;6.10;;;10.00;73.90;;;;;;5031451;28;20751;-71
2024/02/01 03:00:38;;;;;;;11.97;6.33;;;10.00;74.20;;;;;;5027460;28;20281;-71
2024/02/01 03:03:04;;;;;;;11.70;6.47;;;10.00;73.60;;;;;;5030194;28;20263;-70
2024/02/01 03:05:29;;;;;;;11.07;5.40;;;10.00;73.30;;;;;;5030388;28;20258;-70
2024/02/01 03:07:55;;;;;;;13.03;5.70;;;10.00;73.20;;;;;;5031054;28;20514;-70
2024/02/01 03:10:21;;;;;;;12.10;5.90;;;10.00;72.70;;;;;;5024687;28;20690;-71
2024/02/01 03:12:47;;;;;;;10.10;5.30;;;10.00;72.60;;;;;;5027996;28;20178;-71
2024/02/01 03:15:12;;;;;;;12.13;6.33;;;10.00;72.60;;;;;;5029578;28;20944;-71
2024/02/01 03:17:38;;;;;;;13.63;6.17;;;10.10;72.30;;;;;;5028217;28;20188;-70
2024/02/01 03:20:17;;;;;;;7.50;4.40;;;10.10;72.10;;;;;;5026536;28;20291;-70
2024/02/01 03:22:44;;;;;;;7.73;5.07;;;10.10;71.80;;;;;;5023531;28;20196;-70
2024/02/01 03:25:10;;;;;;;10.20;5.50;;;10.10;72.00;;;;;;5030737;28;20404;-70
2024/02/01 03:27:36;;;;;;;9.43;4.70;;;10.10;71.80;;;;;;5029198;28;20460;-72
2024/02/01 03:30:02;;;;;;;7.60;4.63;;;10.10;71.60;;;;;;5027177;28;20181;-70
2024/02/01 03:32:29;;;;;;;8.90;5.00;;;10.10;71.70;;;;;;5026971;28;21033;-69
2024/02/01 03:34:56;;;;;;;6.43;4.60;;;10.10;71.60;;;;;;5029408;28;20450;-70
2024/02/01 03:37:21;;;;;;;6.23;4.00;;;10.10;71.40;;;;;;5026035;28;20794;-69
2024/02/01 03:39:47;;;;;;;6.67;3.90;;;10.00;71.40;;;;;;5032690;28;20419;-71
2024/02/01 03:42:13;;;;;;;7.30;4.70;;;10.10;71.30;;;;;;5029363;28;20464;-69
2024/02/01 03:44:40;;;;;;;8.03;4.40;;;10.10;71.30;;;;;;5033523;28;20192;-69
2024/02/01 03:47:11;;;;;;;7.27;4.67;;;10.10;71.10;;;;;;5032898;28;20993;-70
2024/02/01 03:49:39;;;;;;;7.50;4.30;;;10.00;71.10;;;;;;5032566;28;20491;-70
2024/02/01 03:52:06;;;;;;;8.70;4.70;;;10.00;71.00;;;;;;5031780;28;20459;-70
2024/02/01 03:54:32;;;;;;;8.90;4.63;;;10.00;71.00;;;;;;5034990;28;20424;-70
2024/02/01 03:56:58;;;;;;;7.50;3.77;;;10.10;71.00;;;;;;5031437;28;20429;-71
2024/02/01 03:59:23;;;;;;;8.43;5.03;;;10.10;70.80;;;;;;5036496;28;20240;-71
2024/02/01 04:01:49;;;;;;;6.93;4.10;;;10.10;70.50;;;;;;5034910;28;20686;-71
2024/02/01 04:04:17;;;;;;;5.60;4.70;;;10.10;70.70;;;;;;5031637;28;20473;-72
2024/02/01 04:06:44;;;;;;;7.27;4.40;;;10.00;71.00;;;;;;5033157;28;20594;-72
2024/02/01 04:09:10;;;;;;;6.67;4.33;;;10.00;71.30;;;;;;5027279;28;20495;-72
2024/02/01 04:11:36;;;;;;;11.27;4.50;;;9.90;71.70;;;;;;5020668;28;20615;-72
2024/02/01 04:14:01;;;;;;;10.03;4.43;;;10.00;71.60;;;;;;5025858;28;20781;-72
2024/02/01 04:16:27;;;;;;;9.03;4.80;;;9.90;71.60;;;;;;5033071;28;20558;-69
2024/02/01 04:18:55;;;;;;;9.57;4.60;;;10.00;71.60;;;;;;5032033;28;20208;-71
2024/02/01 04:21:21;;;;;;;7.33;4.47;;;10.00;71.10;;;;;;5025919;28;20471;-71
2024/02/01 04:23:47;;;;;;;9.80;4.37;;;10.00;71.30;;;;;;5031013;28;20435;-71
2024/02/01 04:26:15;;;;;;;7.50;4.17;;;10.10;71.10;;;;;;5033701;28;20806;-71
2024/02/01 04:28:42;;;;;;;8.60;4.57;;;10.10;71.10;;;;;;5033186;28;20231;-72
2024/02/01 04:31:08;;;;;;;8.50;4.30;;;10.10;71.30;;;;;;5026025;28;20474;-71
2024/02/01 04:33:33;;;;;;;7.00;4.53;;;10.10;71.00;;;;;;5028100;28;21185;-71
2024/02/01 04:35:59;;;;;;;7.10;4.00;;;10.20;70.50;;;;;;5037362;28;20490;-70
2024/02/01 04:38:25;;;;;;;8.70;4.33;;;10.30;70.10;;;;;;5040132;28;20193;-70
2024/02/01 04:40:52;;;;;;;7.30;3.53;;;10.30;70.10;;;;;;5030516;28;20486;-69
2024/02/01 04:43:19;;;;;;;8.60;3.73;;;10.30;69.80;;;;;;5032122;28;20185;-70
2024/02/01 04:45:45;;;;;;;9.50;4.30;;;10.30;69.80;;;;;;5033004;28;20925;-72
2024/02/01 04:48:11;;;;;;;5.70;3.60;;;10.30;70.10;;;;;;5034082;28;20460;-72
2024/02/01 04:50:37;;;;;;;8.13;4.40;;;10.30;70.10;;;;;;5034444;28;20587;-72
2024/02/01 04:53:04;;;;;;;5.87;3.90;;;10.30;69.90;;;;;;5026841;28;20219;-70
2024/02/01 04:55:29;;;;;;;6.37;3.80;;;10.30;69.80;;;;;;5031893;28;20927;-71
2024/02/01 04:57:55;;;;;;;8.60;3.53;;;10.20;69.90;;;;;;5030796;28;20554;-70
2024/02/01 05:00:21;;;;;;;7.33;4.03;;;10.30;69.90;;;;;;5027739;28;20679;-71
2024/02/01 05:02:47;;;;;;;5.40;3.30;;;10.20;69.80;;;;;;5027499;28;20231;-70
2024/02/01 05:05:15;;;;;;;4.23;3.13;;;10.20;69.90;;;;;;5031352;28;20416;-70
2024/02/01 05:07:41;;;;;;;6.80;3.00;;;10.30;69.70;;;;;;5031089;28;20570;-72
2024/02/01 05:10:12;;;;;;;8.13;3.60;;;10.30;69.70;;;;;;5024390;28;20437;-71
2024/02/01 05:12:39;;;;;;;7.63;3.40;;;10.40;69.50;;;;;;5026336;28;20432;-72
2024/02/01 05:15:07;;;;;;;7.00;3.67;;;10.40;69.20;;;;;;5028311;28;20979;-70
2024/02/01 05:17:34;;;;;;;4.10;2.87;;;10.40;69.40;;;;;;5031785;28;20451;-70
2024/02/01 05:19:59;;;;;;;7.20;3.10;;;10.40;69.70;;;;;;5030011;28;20466;-69
2024/02/01 05:22:26;;;;;;;4.20;2.60;;;10.30;69.90;;;;;;5027168;28;20420;-68
2024/02/01 05:24:52;;;;;;;5.70;3.40;;;10.20;70.20;;;;;;5037264;28;20265;-71
2024/02/01 05:27:20;;;;;;;6.00;3.20;;;10.20;70.40;;;;;;5031369;28;20550;-70
2024/02/01 05:29:49;;;;;;;14.70;3.30;;;10.20;70.70;;;;;;5030486;28;20185;-70
2024/02/01 05:32:16;;;;;;;5.60;3.20;;;10.20;71.00;;;;;;5026623;28;20860;-71
2024/02/01 05:34:42;;;;;;;9.10;3.50;;;10.20;71.10;;;;;;5032008;28;20447;-71
2024/02/01 05:37:08;;;;;;;4.90;2.80;;;10.20;71.40;;;;;;5032725;28;20452;-72
2024/02/01 05:39:34;;;;;;;3.67;2.67;;;10.20;71.70;;;;;;5031611;28;20217;-71
2024/02/01 05:42:06;;;;;;;5.10;3.20;;;10.10;72.00;;;;;;5026773;28;20490;-72
2024/02/01 05:44:32;;;;;;;6.13;3.23;;;10.10;72.10;;;;;;5029503;28;20958;-70
2024/02/01 05:46:58;;;;;;;6.13;3.27;;;10.20;72.10;;;;;;5031326;28;20557;-70
2024/02/01 05:49:33;;;;;;;5.30;3.30;;;10.20;72.30;;;;;;5030756;28;21096;-71
2024/02/01 05:52:03;;;;;;;5.13;2.93;;;10.20;72.10;;;;;;5015721;28;20964;-71
2024/02/01 05:54:28;;;;;;;4.37;2.90;;;10.30;72.00;;;;;;5030576;28;20436;-70
2024/02/01 05:56:54;;;;;;;4.87;2.77;;;10.20;72.00;;;;;;5035629;28;20424;-71
2024/02/01 05:59:20;;;;;;;8.57;3.73;;;10.20;72.30;;;;;;5032348;28;20178;-72
2024/02/01 06:01:47;;;;;;;6.20;3.00;;;10.20;72.40;;;;;;5023804;28;20755;-70
2024/02/01 06:04:14;;;;;;;4.50;3.20;;;10.30;72.60;;;;;;5028321;28;20428;-71
2024/02/01 06:06:44;;;;;;;6.63;3.73;;;10.20;72.60;;;;;;5029806;28;20530;-71
2024/02/01 06:09:11;;;;;;;7.53;4.00;;;10.20;72.70;;;;;;5030397;28;20416;-72
2024/02/01 06:11:50;;;;;;;7.63;3.53;;;10.10;73.30;;;;;;5024115;28;20998;-72
2024/02/01 06:14:16;;;;;;;10.03;4.17;;;10.10;73.90;;;;;;5029526;28;20448;-71
2024/02/01 06:16:43;;;;;;;7.60;4.10;;;10.20;73.70;;;;;;5031366;28;20462;-72
2024/02/01 06:19:08;;;;;;;11.43;3.80;;;10.20;74.30;;;;;;5027446;28;20189;-71
2024/02/01 06:21:34;;;;;;;7.50;3.40;;;10.10;74.90;;;;;;5028783;28;20632;-70
2024/02/01 06:24:01;;;;;;;8.53;3.67;;;10.00;75.70;;;;;;5030379;28;20248;-72
2024/02/01 06:26:28;;;;;;;5.20;3.00;;;10.00;76.20;;;;;;5036267;28;20428;-72
2024/02/01 06:29:00;;;;;;;6.60;3.30;;;9.90;76.40;;;;;;5033044;28;20476;-72
2024/02/01 06:31:30;;;;;;;8.33;3.40;;;9.80;76.50;;;;;;5027583;28;21040;-71
2024/02/01 06:33:56;;;;;;;5.87;3.40;;;9.80;77.10;;;;;;5023090;28;20859;-72
2024/02/01 06:36:23;;;;;;;5.13;3.23;;;9.70;77.80;;;;;;5030465;28;20440;-72
2024/02/01 06:39:26;;;;;;;5.93;3.20;;;9.60;78.60;;;;;;5029466;28;20209;-71
2024/02/01 06:42:01;;;;;;;8.77;3.93;;;9.50;79.50;;;;;;5018823;28;20460;-70
2024/02/01 06:44:28;;;;;;;7.13;3.70;;;9.40;80.00;;;;;;5025872;28;21046;-72
2024/02/01 06:49:28;;;;;;;9.23;4.43;;;9.20;81.70;;;;;;5034075;28;20439;-71
2024/02/01 06:52:02;;;;;;;9.37;4.33;;;9.30;82.20;;;;;;5025480;28;21067;-70
2024/02/01 06:54:39;;;;;;;10.73;5.40;;;9.30;82.20;;;;;;5022531;28;20428;-71
2024/02/01 06:57:13;;;;;;;9.97;5.17;;;9.20;82.50;;;;;;5030603;28;20495;-70
2024/02/01 07:02:34;;;;;;;8.27;4.90;;;9.10;83.80;;;;;;5021816;28;20590;-72
2024/02/01 07:05:21;;;;;;;12.10;5.67;;;9.10;84.00;;;;;;5029442;28;20950;-72
2024/02/01 07:07:50;;;;;;;10.63;5.47;;;9.10;84.00;;;;;;5027637;28;20960;-71
2024/02/01 07:10:21;;;;;;;12.03;4.53;;;9.00;84.00;;;;;;5026774;28;20523;-71
2024/02/01 07:15:31;;;;;;;11.73;4.23;;;8.90;84.70;;;;;;5029287;28;20450;-71
2024/02/01 07:18:05;;;;;;;7.63;4.00;;;8.80;85.00;;;;;;5028633;28;20502;-70
2024/02/01 07:20:50;;;;;;;8.40;4.20;;;8.80;85.30;;;;;;5020246;28;20216;-71
2024/02/01 07:25:48;;;;;;;8.30;3.80;;;8.60;85.30;;;;;;5028068;28;20433;-72
2024/02/01 07:58:24;;;;;;;11.70;3.63;;;8.40;87.10;;;;;;5030964;28;20982;-71
2024/02/01 08:00:57;;;;;;;6.63;3.30;;;8.40;87.30;;;;;;5026058;28;20444;-70
2024/02/01 08:08:39;;;;;;;6.57;3.67;;;8.40;87.80;;;;;;5034397;28;20482;-71
2024/02/01 08:11:05;;;;;;;8.67;2.90;;;8.30;88.00;;;;;;5027999;28;20470;-70
2024/02/01 08:13:31;;;;;;;6.80;2.83;;;8.30;88.10;;;;;;5033098;28;20578;-69
2024/02/01 08:15:57;;;;;;;7.83;3.17;;;8.30;88.10;;;;;;5033137;28;20446;-71
2024/02/01 08:18:25;;;;;;;7.30;3.50;;;8.30;88.10;;;;;;5036964;28;20919;-72
2024/02/01 08:20:52;;;;;;;5.53;3.20;;;8.30;88.30;;;;;;5031817;28;20862;-72
2024/02/01 08:23:23;;;;;;;6.10;3.70;;;8.30;88.30;;;;;;5031267;28;20463;-72
2024/02/01 08:25:50;;;;;;;7.77;3.80;;;8.30;88.60;;;;;;5033727;28;20511;-70
2024/02/01 08:28:17;;;;;;;7.70;3.20;;;8.30;88.70;;;;;;5032867;28;20957;-70
2024/02/01 08:30:47;;;;;;;5.87;3.60;;;8.30;88.60;;;;;;5026770;28;20814;-70
2024/02/01 08:33:15;;;;;;;7.73;3.40;;;8.30;88.70;;;;;;5030687;28;21295;-73
2024/02/01 08:35:42;;;;;;;9.60;3.90;;;8.20;88.90;;;;;;5029279;28;20436;-71
2024/02/01 08:38:09;;;;;;;9.33;3.07;;;8.20;88.90;;;;;;5032208;28;20474;-71
2024/02/01 08:40:42;;;;;;;16.53;3.37;;;8.20;88.70;;;;;;5026915;28;20452;-71
2024/02/01 08:43:12;;;;;;;4.73;2.50;;;8.20;88.90;;;;;;5033326;28;20416;-71
2024/02/01 08:45:39;;;;;;;3.87;2.70;;;8.20;88.70;;;;;;5036176;28;20477;-72
2024/02/01 08:48:09;;;;;;;5.63;2.90;;;8.20;88.70;;;;;;5036224;28;20601;-72
2024/02/01 08:50:42;;;;;;;9.53;2.83;;;8.20;88.90;;;;;;5031447;28;20517;-71
2024/02/01 08:53:12;;;;;;;4.50;2.77;;;8.20;89.20;;;;;;5031860;28;20411;-72
2024/02/01 08:55:38;;;;;;;4.50;2.70;;;8.20;89.20;;;;;;5033084;28;20436;-71
2024/02/01 08:58:11;;;;;;;6.23;2.97;;;8.20;89.00;;;;;;5032577;28;20423;-71
2024/02/01 09:00:44;;;;;;;3.93;2.43;;;8.20;89.20;;;;;;5026195;28;20465;-71
2024/02/01 09:03:17;;;;;;;9.13;3.53;;;8.30;89.20;;;;;;5025129;28;20436;-71
2024/02/01 09:05:48;;;;;;;11.03;3.40;;;8.30;89.30;;;;;;5031697;28;20485;-71
2024/02/01 09:08:36;;;;;;;6.20;2.70;;;8.30;89.00;;;;;;5032684;28;20460;-71
2024/02/01 09:11:12;;;;;;;11.10;3.60;;;8.30;88.90;;;;;;5039974;28;20897;-72
2024/02/01 09:13:43;;;;;;;3.93;2.57;;;8.40;89.00;;;;;;5027357;28;20506;-72
2024/02/01 09:16:10;;;;;;;8.10;3.37;;;8.40;89.00;;;;;;5033411;28;20420;-71
2024/02/01 09:18:35;;;;;;;8.00;3.17;;;8.40;89.00;;;;;;5033614;28;20936;-72
2024/02/01 09:21:01;;;;;;;6.60;2.67;;;8.40;88.70;;;;;;5028310;28;20456;-72
2024/02/01 09:23:27;;;;;;;5.60;3.17;;;8.40;88.70;;;;;;5030914;28;20624;-72
2024/02/01 09:25:53;;;;;;;7.40;3.10;;;8.40;88.70;;;;;;5033760;28;20456;-72
2024/02/01 09:28:18;;;;;;;6.13;2.83;;;8.40;88.60;;;;;;5032630;28;20468;-72
2024/02/01 09:30:48;;;;;;;4.67;2.90;;;8.50;88.40;;;;;;5029530;28;20291;-71
2024/02/01 09:33:18;;;;;;;4.33;2.50;;;8.50;88.40;;;;;;5030734;28;20229;-72
2024/02/01 09:35:45;;;;;;;5.37;2.40;;;8.60;88.30;;;;;;5045345;28;20415;-70
2024/02/01 09:38:11;;;;;;;7.93;3.23;;;8.60;88.00;;;;;;5031196;28;20507;-72
2024/02/01 09:40:41;;;;;;;4.20;2.33;;;8.70;87.60;;;;;;5027204;28;20555;-72
2024/02/01 09:43:17;;;;;;;9.13;3.20;;;8.80;87.30;;;;;;5031830;28;20454;-70
2024/02/01 09:45:43;;;;;;;8.63;3.30;;;8.90;87.00;;;;;;5032476;28;20416;-72
2024/02/01 09:48:17;;;;;;;4.30;2.40;;;8.90;86.60;;;;;;5032200;28;20471;-72
2024/02/01 09:50:53;;;;;;;4.43;2.40;;;9.00;86.30;;;;;;5027043;28;20455;-72
2024/02/01 09:53:21;;;;;;;6.13;2.27;;;9.00;86.20;;;;;;5029367;28;20477;-70
2024/02/01 09:55:48;;;;;;;9.50;3.50;;;9.00;85.90;;;;;;5031816;28;20796;-71
2024/02/01 09:58:13;;;;;;;7.63;3.00;;;9.10;86.00;;;;;;5033157;28;20431;-72
2024/02/01 10:00:39;;;;;;;6.87;2.60;;;9.20;86.20;;;;;;5028375;28;20551;-73
2024/02/01 10:03:05;;;;;;;10.50;3.10;;;9.20;86.00;;;;;;5029980;28;20200;-70
2024/02/01 10:05:32;;;;;;;6.63;3.20;;;9.20;85.70;;;;;;5034379;28;20457;-72
2024/02/01 10:07:59;;;;;;;12.30;3.57;;;9.30;85.90;;;;;;5036536;28;20690;-72
2024/02/01 10:10:25;;;;;;;7.43;2.80;;;9.40;86.00;;;;;;5032001;28;20524;-70
2024/02/01 10:12:58;;;;;;;8.97;3.03;;;9.40;86.00;;;;;;5027392;28;20436;-72
2024/02/01 10:15:29;;;;;;;4.90;2.53;;;9.50;85.90;;;;;;5032175;28;20477;-71
2024/02/01 10:17:54;;;;;;;5.23;2.57;;;9.50;85.20;;;;;;5032223;28;20559;-72
2024/02/01 10:20:45;;;;;;;5.83;2.60;;;9.50;85.60;;;;;;5027869;28;21026;-70
2024/02/01 10:23:13;;;;;;;5.47;2.80;;;9.60;85.90;;;;;;5031172;28;20185;-72
2024/02/01 10:25:55;;;;;;;5.33;2.60;;;9.50;85.50;;;;;;5042637;28;20404;-73
2024/02/01 10:28:34;;;;;;;5.43;2.80;;;9.50;86.00;;;;;;5033046;28;20475;-72
2024/02/01 10:31:00;;;;;;;4.67;2.37;;;9.40;86.20;;;;;;5031314;28;20463;-73
2024/02/01 10:33:29;;;;;;;4.67;2.03;;;9.40;86.50;;;;;;5031111;28;20443;-73
2024/02/01 10:35:59;;;;;;;3.80;2.67;;;9.40;86.60;;;;;;5035219;28;20431;-72
2024/02/01 10:38:26;;;;;;;4.30;2.30;;;9.40;86.90;;;;;;5034498;28;20416;-73
2024/02/01 10:41:11;;;;;;;7.83;3.50;;;9.50;87.00;;;;;;5025556;28;20550;-71
2024/02/01 10:43:41;;;;;;;4.00;2.23;;;9.50;87.10;;;;;;5025732;28;20916;-72
2024/02/01 10:46:18;;;;;;;3.40;2.07;;;9.60;87.10;;;;;;5029911;28;20420;-72
2024/02/01 10:48:50;;;;;;;8.47;2.70;;;9.60;87.10;;;;;;5027813;28;20467;-72
2024/02/01 10:51:16;;;;;;;5.23;2.57;;;9.70;86.50;;;;;;5023173;28;20456;-72
2024/02/01 10:53:44;;;;;;;5.17;2.50;;;9.80;86.50;;;;;;5029738;28;20536;-73
2024/02/01 10:56:15;;;;;;;3.20;1.80;;;9.70;86.20;;;;;;5034529;28;20412;-72
2024/02/01 10:58:51;;;;;;;3.20;1.97;;;9.80;86.20;;;;;;5036676;28;20423;-73
2024/02/01 11:01:24;;;;;;;3.77;1.90;;;9.80;85.90;;;;;;5019691;28;20843;-73
2024/02/01 11:03:51;;;;;;;3.90;2.40;;;9.80;85.90;;;;;;5030543;28;20566;-71
2024/02/01 11:06:17;;;;;;;4.43;2.90;;;9.80;86.30;;;;;;5033563;28;20423;-72
2024/02/01 11:08:51;;;;;;;3.20;1.70;;;9.80;85.90;;;;;;5036858;28;20471;-73
2024/02/01 11:11:17;;;;;;;2.00;1.40;;;9.70;85.90;;;;;;5026361;28;20523;-73
2024/02/01 11:13:51;;;;;;;1.63;1.27;;;9.70;85.90;;;;;;5032027;28;20495;-72
2024/02/01 11:16:17;;;;;;;2.10;1.33;;;9.80;85.90;;;;;;5033768;28;20511;-73
2024/02/01 11:18:50;;;;;;;3.83;2.17;;;9.90;85.70;;;;;;5033283;28;20420;-72
2024/02/01 11:21:28;;;;;;;4.57;1.70;;;10.00;85.70;;;;;;5023976;28;20526;-71
2024/02/01 11:24:04;;;;;;;2.77;1.57;;;10.20;85.50;;;;;;5030437;28;20427;-72
2024/02/01 11:26:39;;;;;;;4.53;1.47;;;10.30;85.20;;;;;;5029889;28;20534;-72
2024/02/01 11:29:12;;;;;;;1.60;1.13;;;10.40;84.70;;;;;;5029895;28;20458;-71
2024/02/01 11:31:44;;;;;;;1.50;1.13;;;10.40;84.10;;;;;;5027013;28;21009;-73
2024/02/01 11:34:11;;;;;;;1.70;1.00;;;10.40;83.80;;;;;;5024918;28;20475;-72
2024/02/01 11:36:38;;;;;;;2.63;1.20;;;10.50;83.80;;;;;;5031388;28;20474;-72
2024/02/01 11:39:05;;;;;;;2.13;1.10;;;10.60;83.80;;;;;;5026862;28;20424;-72
2024/02/01 11:41:31;;;;;;;3.33;1.20;;;10.60;83.10;;;;;;5021478;28;20496;-72
2024/02/01 11:44:00;;;;;;;1.67;1.27;;;10.60;83.30;;;;;;5020903;28;21116;-72
2024/02/01 11:46:26;;;;;;;1.57;0.90;;;10.60;83.40;;;;;;5030971;28;20729;-71
2024/02/01 11:48:52;;;;;;;1.90;1.33;;;10.60;83.00;;;;;;5030561;28;20506;-72
2024/02/01 11:51:18;;;;;;;1.93;1.30;;;10.50;82.70;;;;;;5023617;28;20499;-71
2024/02/01 11:53:44;;;;;;;3.20;1.50;;;10.60;82.70;;;;;;5026241;28;20936;-72
2024/02/01 11:56:10;;;;;;;2.30;1.27;;;10.60;82.50;;;;;;5030723;28;20185;-72
2024/02/01 11:58:35;;;;;;;1.83;1.47;;;10.80;82.50;;;;;;5031250;28;20432;-71
2024/02/01 12:01:01;;;;;;;1.93;1.20;;;10.80;82.40;;;;;;5026327;28;20232;-73
2024/02/01 12:03:32;;;;;;;1.97;1.03;;;11.00;82.40;;;;;;5028184;28;20188;-72
2024/02/01 12:06:02;;;;;;;1.40;1.07;;;11.20;81.50;;;;;;5034383;28;20420;-71
2024/02/01 12:08:28;;;;;;;2.70;1.30;;;11.30;81.10;;;;;;5037407;28;20479;-71
2024/02/01 12:10:55;;;;;;;10.97;2.57;;;11.20;80.50;;;;;;5030631;28;20486;-72
2024/02/01 12:13:22;;;;;;;2.60;1.43;;;11.20;80.80;;;;;;5028984;28;20420;-72
2024/02/01 12:15:52;;;;;;;5.50;1.93;;;11.10;80.60;;;;;;5034943;28;20998;-71
2024/02/01 12:18:18;;;;;;;2.10;1.37;;;11.00;80.50;;;;;;5034165;28;20412;-72
2024/02/01 12:20:47;;;;;;;1.97;1.13;;;10.90;80.80;;;;;;5029445;28;20451;-70
2024/02/01 12:23:14;;;;;;;2.23;1.23;;;10.90;80.50;;;;;;5033376;28;20562;-71
2024/02/01 12:25:47;;;;;;;2.23;1.00;;;10.80;80.80;;;;;;5034784;28;20455;-73
2024/02/01 12:28:13;;;;;;;3.30;1.33;;;10.90;80.90;;;;;;5032485;28;20920;-72
2024/02/01 12:30:43;;;;;;;1.87;1.50;;;11.00;81.20;;;;;;5029793;28;20501;-72
2024/02/01 12:33:12;;;;;;;2.47;1.20;;;10.80;81.20;;;;;;5035210;28;20204;-72
2024/02/01 12:35:39;;;;;;;3.23;1.60;;;10.80;81.10;;;;;;5033895;28;20841;-72
2024/02/01 12:38:05;;;;;;;4.97;2.10;;;10.70;81.20;;;;;;5030421;28;20482;-72
2024/02/01 12:40:30;;;;;;;4.10;1.93;;;10.50;80.90;;;;;;5028712;28;20487;-71
2024/02/01 12:43:01;;;;;;;3.60;2.10;;;10.30;81.20;;;;;;5031647;28;20185;-70
2024/02/01 12:45:27;;;;;;;2.40;1.50;;;10.30;81.80;;;;;;5033238;28;20272;-72
2024/02/01 12:47:53;;;;;;;3.50;1.73;;;10.30;81.90;;;;;;5034048;28;20471;-71
2024/02/01 12:50:20;;;;;;;2.90;2.03;;;10.30;81.50;;;;;;5030977;28;20466;-72
2024/02/01 12:52:46;;;;;;;5.53;2.10;;;10.40;81.70;;;;;;5030136;28;20812;-72
2024/02/01 12:55:13;;;;;;;3.20;1.93;;;10.40;81.70;;;;;;5029049;28;20450;-72
2024/02/01 12:57:42;;;;;;;3.00;2.00;;;10.30;81.80;;;;;;5034264;28;20968;-72
2024/02/01 13:00:11;;;;;;;2.40;1.80;;;10.30;81.70;;;;;;5029704;28;20489;-72
2024/02/01 13:02:38;;;;;;;2.73;2.30;;;10.30;81.90;;;;;;5022687;28;20428;-72
2024/02/01 13:05:09;;;;;;;4.10;2.40;;;10.30;81.90;;;;;;5029958;28;20427;-71
2024/02/01 13:07:35;;;;;;;3.73;2.80;;;10.30;82.20;;;;;;5033882;28;20842;-71
2024/02/01 13:10:05;;;;;;;4.00;2.67;;;10.40;82.50;;;;;;5028974;28;20514;-72
2024/02/01 13:12:33;;;;;;;5.23;3.60;;;10.30;81.90;;;;;;5033967;28;20524;-72
2024/02/01 13:15:00;;;;;;;5.73;2.60;;;10.30;82.20;;;;;;5030089;28;20417;-72
2024/02/01 13:17:36;;;;;;;5.90;3.17;;;10.30;82.40;;;;;;5033770;28;20431;-70
2024/02/01 13:20:19;;;;;;;2.80;2.13;;;10.30;82.20;;;;;;5030525;28;20419;-71
2024/02/01 13:22:49;;;;;;;6.37;2.80;;;10.30;82.40;;;;;;5037359;28;20931;-72
2024/02/01 13:25:22;;;;;;;3.90;2.90;;;10.40;82.20;;;;;;5039925;28;20766;-71
2024/02/01 13:27:52;;;;;;;4.30;3.03;;;10.50;82.20;;;;;;5032080;28;20517;-72
2024/02/01 13:30:19;;;;;;;4.97;2.83;;;10.40;81.70;;;;;;5028193;28;20495;-73
2024/02/01 13:32:44;;;;;;;3.27;2.43;;;10.40;81.70;;;;;;5025268;28;20476;-71
2024/02/01 13:35:10;;;;;;;5.93;3.00;;;10.40;81.50;;;;;;5034895;28;20435;-73
2024/02/01 13:37:37;;;;;;;5.80;3.37;;;10.40;81.70;;;;;;5034973;28;20173;-71